sensor_id;sensor_type;location;lat;lon;timestamp;P1;durP1;ratioP1;P2;durP2;ratioP2
4748;SDS011;2388;53.582;9.962;2023-02-23T00:00:23;18.13;;;12.30;;
4748;SDS011;2388;53.582;9.962;2023-02-23T00:02:53;20.00;;;12.00;;
4748;SDS011;2388;53.582;9.962;2023-02-23T00:05:25;18.00;;;12.03;;
4748;SDS011;2388;53.582;9.962;2023-02-23T00:07:52;22.60;;;12.80;;
4748;SDS011;2388;53.582;9.962;2023-02-23T00:10:18;23.03;;;13.90;;
4748;SDS011;2388;53.582;9.962;2023-02-23T00:12:45;17.10;;;13.03;;
4748;SDS011;2388;53.582;9.962;2023-02-23T00:15:13;26.50;;;12.73;;
4748;SDS011;2388;53.582;9.962;2023-02-23T00:17:39;26.60;;;12.83;;
4748;SDS011;2388;53.582;9.962;2023-02-23T00:20:06;23.93;;;12.47;;
4748;SDS011;2388;53.582;9.962;2023-02-23T00:22:35;20.67;;;12.60;;
4748;SDS011;2388;53.582;9.962;2023-02-23T00:25:03;17.93;;;11.43;;
4748;SDS011;2388;53.582;9.962;2023-02-23T00:27:33;18.33;;;12.70;;
4748;SDS011;2388;53.582;9.962;2023-02-23T00:29:59;18.20;;;11.70;;
4748;SDS011;2388;53.582;9.962;2023-02-23T00:32:24;19.80;;;12.10;;
4748;SDS011;2388;53.582;9.962;2023-02-23T00:34:50;17.80;;;12.70;;
4748;SDS011;2388;53.582;9.962;2023-02-23T00:37:17;18.20;;;13.13;;
4748;SDS011;2388;53.582;9.962;2023-02-23T00:39:43;17.13;;;11.43;;
4748;SDS011;2388;53.582;9.962;2023-02-23T00:42:09;23.20;;;13.63;;
4748;SDS011;2388;53.582;9.962;2023-02-23T00:44:35;25.17;;;13.57;;
4748;SDS011;2388;53.582;9.962;2023-02-23T00:47:04;20.23;;;12.17;;
4748;SDS011;2388;53.582;9.962;2023-02-23T00:49:31;20.83;;;12.53;;
4748;SDS011;2388;53.582;9.962;2023-02-23T00:51:57;21.10;;;12.73;;
4748;SDS011;2388;53.582;9.962;2023-02-23T00:54:22;16.77;;;11.60;;
4748;SDS011;2388;53.582;9.962;2023-02-23T00:56:48;24.70;;;12.93;;
4748;SDS011;2388;53.582;9.962;2023-02-23T00:59:14;21.83;;;13.33;;
4748;SDS011;2388;53.582;9.962;2023-02-23T01:01:40;21.33;;;11.97;;
4748;SDS011;2388;53.582;9.962;2023-02-23T01:04:06;22.60;;;13.27;;
4748;SDS011;2388;53.582;9.962;2023-02-23T01:06:33;16.63;;;11.80;;
4748;SDS011;2388;53.582;9.962;2023-02-23T01:09:05;20.77;;;12.13;;
4748;SDS011;2388;53.582;9.962;2023-02-23T01:11:32;21.03;;;12.53;;
4748;SDS011;2388;53.582;9.962;2023-02-23T01:13:59;20.30;;;12.67;;
4748;SDS011;2388;53.582;9.962;2023-02-23T01:16:27;20.97;;;12.10;;
4748;SDS011;2388;53.582;9.962;2023-02-23T01:18:55;17.53;;;11.60;;
4748;SDS011;2388;53.582;9.962;2023-02-23T01:21:29;19.63;;;12.30;;
4748;SDS011;2388;53.582;9.962;2023-02-23T01:23:57;21.20;;;12.87;;
4748;SDS011;2388;53.582;9.962;2023-02-23T01:26:24;18.63;;;12.50;;
4748;SDS011;2388;53.582;9.962;2023-02-23T01:28:53;21.00;;;12.60;;
4748;SDS011;2388;53.582;9.962;2023-02-23T01:31:21;27.10;;;12.03;;
4748;SDS011;2388;53.582;9.962;2023-02-23T01:33:51;19.97;;;13.30;;
4748;SDS011;2388;53.582;9.962;2023-02-23T01:36:20;20.50;;;12.40;;
4748;SDS011;2388;53.582;9.962;2023-02-23T01:38:47;19.83;;;13.30;;
4748;SDS011;2388;53.582;9.962;2023-02-23T01:41:13;18.90;;;12.40;;
4748;SDS011;2388;53.582;9.962;2023-02-23T01:46:32;17.93;;;11.97;;
4748;SDS011;2388;53.582;9.962;2023-02-23T01:49:03;20.37;;;11.80;;
4748;SDS011;2388;53.582;9.962;2023-02-23T01:51:30;20.90;;;13.53;;
4748;SDS011;2388;53.582;9.962;2023-02-23T01:54:17;21.57;;;13.23;;
4748;SDS011;2388;53.582;9.962;2023-02-23T01:56:47;24.13;;;12.73;;
4748;SDS011;2388;53.582;9.962;2023-02-23T01:59:22;16.83;;;11.00;;
4748;SDS011;2388;53.582;9.962;2023-02-23T02:01:54;19.53;;;11.80;;
4748;SDS011;2388;53.582;9.962;2023-02-23T02:04:20;19.63;;;12.43;;
4748;SDS011;2388;53.582;9.962;2023-02-23T02:06:47;22.60;;;14.57;;
4748;SDS011;2388;53.582;9.962;2023-02-23T02:09:17;19.30;;;13.27;;
4748;SDS011;2388;53.582;9.962;2023-02-23T02:11:44;25.57;;;13.80;;
4748;SDS011;2388;53.582;9.962;2023-02-23T02:14:19;25.73;;;12.93;;
4748;SDS011;2388;53.582;9.962;2023-02-23T02:17:06;19.63;;;12.97;;
4748;SDS011;2388;53.582;9.962;2023-02-23T02:19:58;19.97;;;13.97;;
4748;SDS011;2388;53.582;9.962;2023-02-23T02:25:32;21.80;;;14.20;;
4748;SDS011;2388;53.582;9.962;2023-02-23T02:41:44;22.70;;;12.87;;
4748;SDS011;2388;53.582;9.962;2023-02-23T02:44:20;23.43;;;13.10;;
4748;SDS011;2388;53.582;9.962;2023-02-23T02:47:27;27.80;;;12.83;;
4748;SDS011;2388;53.582;9.962;2023-02-23T02:50:22;24.53;;;14.27;;
4748;SDS011;2388;53.582;9.962;2023-02-23T02:53:17;21.80;;;12.73;;
4748;SDS011;2388;53.582;9.962;2023-02-23T02:55:44;23.20;;;12.83;;
4748;SDS011;2388;53.582;9.962;2023-02-23T02:58:12;21.20;;;12.50;;
4748;SDS011;2388;53.582;9.962;2023-02-23T03:00:43;20.80;;;12.97;;
4748;SDS011;2388;53.582;9.962;2023-02-23T03:06:21;28.50;;;13.83;;
4748;SDS011;2388;53.582;9.962;2023-02-23T03:12:38;21.93;;;13.23;;
4748;SDS011;2388;53.582;9.962;2023-02-23T03:15:54;21.77;;;13.10;;
4748;SDS011;2388;53.582;9.962;2023-02-23T03:18:56;24.90;;;13.47;;
4748;SDS011;2388;53.582;9.962;2023-02-23T03:25:00;23.60;;;13.30;;
4748;SDS011;2388;53.582;9.962;2023-02-23T03:28:14;19.57;;;11.97;;
4748;SDS011;2388;53.582;9.962;2023-02-23T03:34:16;24.90;;;13.63;;
4748;SDS011;2388;53.582;9.962;2023-02-23T03:37:15;22.70;;;13.70;;
4748;SDS011;2388;53.582;9.962;2023-02-23T03:40:11;20.97;;;13.10;;
4748;SDS011;2388;53.582;9.962;2023-02-23T03:42:57;23.67;;;12.80;;
4748;SDS011;2388;53.582;9.962;2023-02-23T03:45:44;23.67;;;13.53;;
4748;SDS011;2388;53.582;9.962;2023-02-23T03:48:30;23.80;;;14.40;;
4748;SDS011;2388;53.582;9.962;2023-02-23T03:51:18;20.33;;;14.67;;
4748;SDS011;2388;53.582;9.962;2023-02-23T03:54:10;21.47;;;13.40;;
4748;SDS011;2388;53.582;9.962;2023-02-23T03:57:00;18.87;;;12.70;;
4748;SDS011;2388;53.582;9.962;2023-02-23T03:59:50;27.17;;;14.50;;
4748;SDS011;2388;53.582;9.962;2023-02-23T04:02:40;25.03;;;13.53;;
4748;SDS011;2388;53.582;9.962;2023-02-23T04:05:26;20.80;;;13.40;;
4748;SDS011;2388;53.582;9.962;2023-02-23T04:08:13;20.67;;;13.30;;
4748;SDS011;2388;53.582;9.962;2023-02-23T04:11:07;20.73;;;12.20;;
4748;SDS011;2388;53.582;9.962;2023-02-23T04:14:03;23.50;;;14.70;;
4748;SDS011;2388;53.582;9.962;2023-02-23T04:16:32;22.83;;;13.97;;
4748;SDS011;2388;53.582;9.962;2023-02-23T04:18:58;21.30;;;14.17;;
4748;SDS011;2388;53.582;9.962;2023-02-23T04:21:24;23.37;;;13.27;;
4748;SDS011;2388;53.582;9.962;2023-02-23T04:23:50;28.10;;;14.30;;
4748;SDS011;2388;53.582;9.962;2023-02-23T04:26:16;21.73;;;13.97;;
4748;SDS011;2388;53.582;9.962;2023-02-23T04:28:41;23.90;;;14.23;;
4748;SDS011;2388;53.582;9.962;2023-02-23T04:31:07;19.13;;;13.20;;
4748;SDS011;2388;53.582;9.962;2023-02-23T04:33:32;27.60;;;14.30;;
4748;SDS011;2388;53.582;9.962;2023-02-23T04:35:58;23.33;;;13.47;;
4748;SDS011;2388;53.582;9.962;2023-02-23T04:38:23;24.93;;;14.30;;
4748;SDS011;2388;53.582;9.962;2023-02-23T04:40:49;22.63;;;14.03;;
4748;SDS011;2388;53.582;9.962;2023-02-23T04:43:15;21.20;;;13.80;;
4748;SDS011;2388;53.582;9.962;2023-02-23T04:45:40;23.87;;;14.47;;
4748;SDS011;2388;53.582;9.962;2023-02-23T04:48:06;23.57;;;14.50;;
4748;SDS011;2388;53.582;9.962;2023-02-23T04:50:32;25.07;;;14.00;;
4748;SDS011;2388;53.582;9.962;2023-02-23T04:52:57;22.70;;;14.60;;
4748;SDS011;2388;53.582;9.962;2023-02-23T04:55:24;22.60;;;14.97;;
4748;SDS011;2388;53.582;9.962;2023-02-23T04:57:56;28.20;;;14.93;;
4748;SDS011;2388;53.582;9.962;2023-02-23T05:00:23;23.17;;;13.73;;
4748;SDS011;2388;53.582;9.962;2023-02-23T05:02:48;24.77;;;14.60;;
4748;SDS011;2388;53.582;9.962;2023-02-23T05:05:14;26.40;;;15.70;;
4748;SDS011;2388;53.582;9.962;2023-02-23T05:07:39;26.80;;;14.87;;
4748;SDS011;2388;53.582;9.962;2023-02-23T05:10:07;26.00;;;15.27;;
4748;SDS011;2388;53.582;9.962;2023-02-23T05:12:33;28.00;;;15.80;;
4748;SDS011;2388;53.582;9.962;2023-02-23T05:14:59;28.13;;;16.30;;
4748;SDS011;2388;53.582;9.962;2023-02-23T05:17:25;30.10;;;15.63;;
4748;SDS011;2388;53.582;9.962;2023-02-23T05:19:50;26.87;;;14.97;;
4748;SDS011;2388;53.582;9.962;2023-02-23T05:22:16;29.17;;;17.17;;
4748;SDS011;2388;53.582;9.962;2023-02-23T05:24:41;30.00;;;15.53;;
4748;SDS011;2388;53.582;9.962;2023-02-23T05:27:08;29.53;;;16.70;;
4748;SDS011;2388;53.582;9.962;2023-02-23T05:29:37;31.00;;;16.17;;
4748;SDS011;2388;53.582;9.962;2023-02-23T05:32:03;26.27;;;16.77;;
4748;SDS011;2388;53.582;9.962;2023-02-23T05:34:29;25.63;;;17.30;;
4748;SDS011;2388;53.582;9.962;2023-02-23T05:36:54;27.33;;;15.77;;
4748;SDS011;2388;53.582;9.962;2023-02-23T05:39:20;39.83;;;17.10;;
4748;SDS011;2388;53.582;9.962;2023-02-23T05:41:45;30.10;;;15.53;;
4748;SDS011;2388;53.582;9.962;2023-02-23T05:44:11;29.70;;;16.90;;
4748;SDS011;2388;53.582;9.962;2023-02-23T05:46:37;28.70;;;15.70;;
4748;SDS011;2388;53.582;9.962;2023-02-23T05:49:03;32.23;;;16.53;;
4748;SDS011;2388;53.582;9.962;2023-02-23T05:51:29;34.10;;;16.73;;
4748;SDS011;2388;53.582;9.962;2023-02-23T05:53:57;32.27;;;16.93;;
4748;SDS011;2388;53.582;9.962;2023-02-23T05:56:22;34.30;;;17.30;;
4748;SDS011;2388;53.582;9.962;2023-02-23T05:58:49;35.83;;;18.60;;
4748;SDS011;2388;53.582;9.962;2023-02-23T06:01:16;36.60;;;19.30;;
4748;SDS011;2388;53.582;9.962;2023-02-23T06:03:43;37.83;;;19.93;;
4748;SDS011;2388;53.582;9.962;2023-02-23T06:06:09;35.20;;;18.00;;
4748;SDS011;2388;53.582;9.962;2023-02-23T06:08:35;43.07;;;19.43;;
4748;SDS011;2388;53.582;9.962;2023-02-23T06:11:00;43.50;;;20.30;;
4748;SDS011;2388;53.582;9.962;2023-02-23T06:13:26;49.87;;;24.80;;
4748;SDS011;2388;53.582;9.962;2023-02-23T06:15:52;43.07;;;22.67;;
4748;SDS011;2388;53.582;9.962;2023-02-23T06:18:18;39.77;;;20.60;;
4748;SDS011;2388;53.582;9.962;2023-02-23T06:20:45;35.80;;;19.50;;
4748;SDS011;2388;53.582;9.962;2023-02-23T06:23:11;42.43;;;20.73;;
4748;SDS011;2388;53.582;9.962;2023-02-23T06:25:37;38.00;;;19.37;;
4748;SDS011;2388;53.582;9.962;2023-02-23T06:28:03;41.40;;;20.00;;
4748;SDS011;2388;53.582;9.962;2023-02-23T06:30:29;44.93;;;22.00;;
4748;SDS011;2388;53.582;9.962;2023-02-23T06:32:55;41.63;;;22.40;;
4748;SDS011;2388;53.582;9.962;2023-02-23T06:35:20;45.60;;;22.20;;
4748;SDS011;2388;53.582;9.962;2023-02-23T06:37:45;43.20;;;21.40;;
4748;SDS011;2388;53.582;9.962;2023-02-23T06:40:11;42.00;;;21.17;;
4748;SDS011;2388;53.582;9.962;2023-02-23T06:42:37;45.57;;;21.13;;
4748;SDS011;2388;53.582;9.962;2023-02-23T06:45:03;45.93;;;21.70;;
4748;SDS011;2388;53.582;9.962;2023-02-23T06:47:29;39.30;;;19.77;;
4748;SDS011;2388;53.582;9.962;2023-02-23T06:49:54;44.13;;;22.33;;
4748;SDS011;2388;53.582;9.962;2023-02-23T06:52:20;51.40;;;21.00;;
4748;SDS011;2388;53.582;9.962;2023-02-23T06:54:45;43.30;;;21.33;;
4748;SDS011;2388;53.582;9.962;2023-02-23T06:57:12;49.23;;;22.60;;
4748;SDS011;2388;53.582;9.962;2023-02-23T06:59:37;49.97;;;23.50;;
4748;SDS011;2388;53.582;9.962;2023-02-23T07:02:03;57.33;;;24.77;;
4748;SDS011;2388;53.582;9.962;2023-02-23T07:04:29;51.83;;;22.60;;
4748;SDS011;2388;53.582;9.962;2023-02-23T07:06:55;57.47;;;25.03;;
4748;SDS011;2388;53.582;9.962;2023-02-23T07:09:20;55.33;;;24.63;;
4748;SDS011;2388;53.582;9.962;2023-02-23T07:11:46;61.40;;;24.33;;
4748;SDS011;2388;53.582;9.962;2023-02-23T07:14:11;63.03;;;26.57;;
4748;SDS011;2388;53.582;9.962;2023-02-23T07:16:37;61.63;;;25.70;;
4748;SDS011;2388;53.582;9.962;2023-02-23T07:19:04;65.83;;;27.90;;
4748;SDS011;2388;53.582;9.962;2023-02-23T07:21:30;59.53;;;25.33;;
4748;SDS011;2388;53.582;9.962;2023-02-23T07:23:56;56.43;;;23.10;;
4748;SDS011;2388;53.582;9.962;2023-02-23T07:26:23;50.10;;;23.87;;
4748;SDS011;2388;53.582;9.962;2023-02-23T07:28:48;62.07;;;22.20;;
4748;SDS011;2388;53.582;9.962;2023-02-23T07:31:14;60.97;;;24.37;;
4748;SDS011;2388;53.582;9.962;2023-02-23T07:33:40;47.80;;;22.37;;
4748;SDS011;2388;53.582;9.962;2023-02-23T07:36:05;53.60;;;22.63;;
4748;SDS011;2388;53.582;9.962;2023-02-23T07:38:32;51.50;;;22.67;;
4748;SDS011;2388;53.582;9.962;2023-02-23T07:40:58;55.10;;;24.03;;
4748;SDS011;2388;53.582;9.962;2023-02-23T07:43:24;65.30;;;25.20;;
4748;SDS011;2388;53.582;9.962;2023-02-23T07:45:49;52.70;;;24.37;;
4748;SDS011;2388;53.582;9.962;2023-02-23T07:48:16;55.80;;;22.97;;
4748;SDS011;2388;53.582;9.962;2023-02-23T07:50:42;62.77;;;24.30;;
4748;SDS011;2388;53.582;9.962;2023-02-23T07:53:07;54.57;;;23.97;;
4748;SDS011;2388;53.582;9.962;2023-02-23T07:55:33;54.97;;;22.67;;
4748;SDS011;2388;53.582;9.962;2023-02-23T07:57:58;51.03;;;23.47;;
4748;SDS011;2388;53.582;9.962;2023-02-23T08:00:24;51.43;;;21.43;;
4748;SDS011;2388;53.582;9.962;2023-02-23T08:02:51;48.50;;;20.63;;
4748;SDS011;2388;53.582;9.962;2023-02-23T08:05:17;46.23;;;21.40;;
4748;SDS011;2388;53.582;9.962;2023-02-23T08:07:43;48.93;;;20.70;;
4748;SDS011;2388;53.582;9.962;2023-02-23T08:10:09;38.60;;;19.20;;
4748;SDS011;2388;53.582;9.962;2023-02-23T08:12:35;45.20;;;19.87;;
4748;SDS011;2388;53.582;9.962;2023-02-23T08:15:01;46.20;;;21.37;;
4748;SDS011;2388;53.582;9.962;2023-02-23T08:17:29;42.27;;;19.43;;
4748;SDS011;2388;53.582;9.962;2023-02-23T08:19:55;42.17;;;19.57;;
4748;SDS011;2388;53.582;9.962;2023-02-23T08:22:20;39.03;;;19.80;;
4748;SDS011;2388;53.582;9.962;2023-02-23T08:24:46;37.17;;;18.10;;
4748;SDS011;2388;53.582;9.962;2023-02-23T08:27:12;36.33;;;18.43;;
4748;SDS011;2388;53.582;9.962;2023-02-23T08:29:37;53.60;;;25.20;;
4748;SDS011;2388;53.582;9.962;2023-02-23T08:32:03;72.40;;;35.93;;
4748;SDS011;2388;53.582;9.962;2023-02-23T08:34:29;52.80;;;28.13;;
4748;SDS011;2388;53.582;9.962;2023-02-23T08:36:55;40.83;;;19.97;;
4748;SDS011;2388;53.582;9.962;2023-02-23T08:39:20;42.10;;;19.93;;
4748;SDS011;2388;53.582;9.962;2023-02-23T08:41:47;40.47;;;19.87;;
4748;SDS011;2388;53.582;9.962;2023-02-23T08:44:12;38.67;;;17.80;;
4748;SDS011;2388;53.582;9.962;2023-02-23T08:46:38;36.03;;;18.40;;
4748;SDS011;2388;53.582;9.962;2023-02-23T08:49:03;34.57;;;17.20;;
4748;SDS011;2388;53.582;9.962;2023-02-23T08:51:30;37.30;;;18.27;;
4748;SDS011;2388;53.582;9.962;2023-02-23T08:53:58;37.70;;;17.30;;
4748;SDS011;2388;53.582;9.962;2023-02-23T08:56:25;36.43;;;18.10;;
4748;SDS011;2388;53.582;9.962;2023-02-23T08:58:51;38.10;;;18.40;;
4748;SDS011;2388;53.582;9.962;2023-02-23T09:01:17;34.83;;;17.27;;
4748;SDS011;2388;53.582;9.962;2023-02-23T09:03:45;34.10;;;17.30;;
4748;SDS011;2388;53.582;9.962;2023-02-23T09:06:12;29.83;;;17.30;;
4748;SDS011;2388;53.582;9.962;2023-02-23T09:08:40;41.17;;;19.57;;
4748;SDS011;2388;53.582;9.962;2023-02-23T09:11:06;40.67;;;22.43;;
4748;SDS011;2388;53.582;9.962;2023-02-23T09:13:31;45.37;;;22.67;;
4748;SDS011;2388;53.582;9.962;2023-02-23T09:15:57;48.13;;;24.30;;
4748;SDS011;2388;53.582;9.962;2023-02-23T09:18:23;50.67;;;24.40;;
4748;SDS011;2388;53.582;9.962;2023-02-23T09:20:52;58.03;;;26.57;;
4748;SDS011;2388;53.582;9.962;2023-02-23T09:23:17;51.67;;;25.83;;
4748;SDS011;2388;53.582;9.962;2023-02-23T09:25:43;45.30;;;24.70;;
4748;SDS011;2388;53.582;9.962;2023-02-23T09:28:13;56.40;;;26.00;;
4748;SDS011;2388;53.582;9.962;2023-02-23T09:30:42;59.20;;;30.17;;
4748;SDS011;2388;53.582;9.962;2023-02-23T09:33:08;52.70;;;26.27;;
4748;SDS011;2388;53.582;9.962;2023-02-23T09:35:34;57.83;;;26.27;;
4748;SDS011;2388;53.582;9.962;2023-02-23T09:38:01;56.93;;;28.13;;
4748;SDS011;2388;53.582;9.962;2023-02-23T09:40:29;57.20;;;28.40;;
4748;SDS011;2388;53.582;9.962;2023-02-23T09:43:11;60.17;;;26.97;;
4748;SDS011;2388;53.582;9.962;2023-02-23T09:45:47;57.40;;;28.70;;
4748;SDS011;2388;53.582;9.962;2023-02-23T09:48:32;67.77;;;30.67;;
4748;SDS011;2388;53.582;9.962;2023-02-23T09:50:58;82.27;;;31.07;;
4748;SDS011;2388;53.582;9.962;2023-02-23T09:53:41;71.83;;;30.13;;
4748;SDS011;2388;53.582;9.962;2023-02-23T09:56:11;80.37;;;32.73;;
4748;SDS011;2388;53.582;9.962;2023-02-23T09:58:42;74.00;;;32.67;;
4748;SDS011;2388;53.582;9.962;2023-02-23T10:01:17;82.23;;;31.20;;
4748;SDS011;2388;53.582;9.962;2023-02-23T10:04:19;78.63;;;30.37;;
4748;SDS011;2388;53.582;9.962;2023-02-23T10:06:52;88.57;;;33.33;;
4748;SDS011;2388;53.582;9.962;2023-02-23T10:09:56;84.83;;;33.97;;
4748;SDS011;2388;53.582;9.962;2023-02-23T10:15:36;93.47;;;34.30;;
4748;SDS011;2388;53.582;9.962;2023-02-23T10:23:40;88.27;;;35.50;;
4748;SDS011;2388;53.582;9.962;2023-02-23T10:26:13;101.30;;;36.27;;
4748;SDS011;2388;53.582;9.962;2023-02-23T10:28:41;77.33;;;31.63;;
4748;SDS011;2388;53.582;9.962;2023-02-23T10:31:27;96.43;;;33.57;;
4748;SDS011;2388;53.582;9.962;2023-02-23T10:34:01;91.57;;;32.53;;
4748;SDS011;2388;53.582;9.962;2023-02-23T10:36:32;86.53;;;32.80;;
4748;SDS011;2388;53.582;9.962;2023-02-23T10:39:05;84.17;;;29.47;;
4748;SDS011;2388;53.582;9.962;2023-02-23T10:41:33;93.60;;;33.67;;
4748;SDS011;2388;53.582;9.962;2023-02-23T10:44:00;102.37;;;35.57;;
4748;SDS011;2388;53.582;9.962;2023-02-23T10:46:37;93.40;;;32.97;;
4748;SDS011;2388;53.582;9.962;2023-02-23T10:49:05;92.40;;;31.57;;
4748;SDS011;2388;53.582;9.962;2023-02-23T10:51:32;82.83;;;30.57;;
4748;SDS011;2388;53.582;9.962;2023-02-23T10:54:32;86.67;;;31.13;;
4748;SDS011;2388;53.582;9.962;2023-02-23T10:57:32;90.13;;;32.20;;
4748;SDS011;2388;53.582;9.962;2023-02-23T11:02:44;78.27;;;30.10;;
4748;SDS011;2388;53.582;9.962;2023-02-23T11:05:26;74.63;;;29.73;;
4748;SDS011;2388;53.582;9.962;2023-02-23T11:08:09;79.80;;;29.33;;
4748;SDS011;2388;53.582;9.962;2023-02-23T11:10:35;77.13;;;28.43;;
4748;SDS011;2388;53.582;9.962;2023-02-23T11:13:01;74.10;;;27.67;;
4748;SDS011;2388;53.582;9.962;2023-02-23T11:15:28;80.37;;;30.30;;
4748;SDS011;2388;53.582;9.962;2023-02-23T11:17:57;77.67;;;28.83;;
4748;SDS011;2388;53.582;9.962;2023-02-23T11:20:28;70.73;;;28.47;;
4748;SDS011;2388;53.582;9.962;2023-02-23T11:23:00;72.47;;;28.10;;
4748;SDS011;2388;53.582;9.962;2023-02-23T11:25:59;83.43;;;28.80;;
4748;SDS011;2388;53.582;9.962;2023-02-23T11:28:28;72.60;;;27.13;;
4748;SDS011;2388;53.582;9.962;2023-02-23T11:31:14;77.00;;;28.17;;
4748;SDS011;2388;53.582;9.962;2023-02-23T11:33:42;71.83;;;26.10;;
4748;SDS011;2388;53.582;9.962;2023-02-23T11:39:01;81.40;;;28.60;;
4748;SDS011;2388;53.582;9.962;2023-02-23T11:41:44;68.23;;;27.77;;
4748;SDS011;2388;53.582;9.962;2023-02-23T11:44:20;74.53;;;27.07;;
4748;SDS011;2388;53.582;9.962;2023-02-23T11:46:47;64.67;;;26.87;;
4748;SDS011;2388;53.582;9.962;2023-02-23T11:49:23;60.10;;;26.47;;
4748;SDS011;2388;53.582;9.962;2023-02-23T11:51:53;70.40;;;27.17;;
4748;SDS011;2388;53.582;9.962;2023-02-23T11:54:20;67.93;;;25.93;;
4748;SDS011;2388;53.582;9.962;2023-02-23T11:56:50;77.00;;;27.73;;
4748;SDS011;2388;53.582;9.962;2023-02-23T11:59:19;70.13;;;25.77;;
4748;SDS011;2388;53.582;9.962;2023-02-23T12:01:52;84.43;;;27.60;;
4748;SDS011;2388;53.582;9.962;2023-02-23T12:06:53;74.80;;;25.90;;
4748;SDS011;2388;53.582;9.962;2023-02-23T12:09:39;75.07;;;27.87;;
4748;SDS011;2388;53.582;9.962;2023-02-23T12:12:08;64.47;;;26.47;;
4748;SDS011;2388;53.582;9.962;2023-02-23T12:14:40;66.13;;;26.23;;
4748;SDS011;2388;53.582;9.962;2023-02-23T12:19:48;64.13;;;24.90;;
4748;SDS011;2388;53.582;9.962;2023-02-23T12:22:26;68.43;;;23.87;;
4748;SDS011;2388;53.582;9.962;2023-02-23T12:25:01;62.03;;;26.00;;
4748;SDS011;2388;53.582;9.962;2023-02-23T12:27:39;62.73;;;26.40;;
4748;SDS011;2388;53.582;9.962;2023-02-23T12:30:26;59.60;;;24.27;;
4748;SDS011;2388;53.582;9.962;2023-02-23T12:38:37;59.07;;;24.20;;
4748;SDS011;2388;53.582;9.962;2023-02-23T12:41:16;59.67;;;24.10;;
4748;SDS011;2388;53.582;9.962;2023-02-23T12:43:47;62.30;;;22.80;;
4748;SDS011;2388;53.582;9.962;2023-02-23T12:46:29;68.47;;;25.00;;
4748;SDS011;2388;53.582;9.962;2023-02-23T12:49:19;61.17;;;23.23;;
4748;SDS011;2388;53.582;9.962;2023-02-23T12:51:53;64.57;;;24.10;;
4748;SDS011;2388;53.582;9.962;2023-02-23T12:54:23;59.33;;;23.47;;
4748;SDS011;2388;53.582;9.962;2023-02-23T12:56:54;59.43;;;24.47;;
4748;SDS011;2388;53.582;9.962;2023-02-23T13:05:38;60.23;;;22.20;;
4748;SDS011;2388;53.582;9.962;2023-02-23T13:08:23;58.20;;;22.30;;
4748;SDS011;2388;53.582;9.962;2023-02-23T13:13:56;72.67;;;26.00;;
4748;SDS011;2388;53.582;9.962;2023-02-23T13:16:44;53.40;;;21.37;;
4748;SDS011;2388;53.582;9.962;2023-02-23T13:19:26;48.70;;;20.80;;
4748;SDS011;2388;53.582;9.962;2023-02-23T13:22:35;68.47;;;25.57;;
4748;SDS011;2388;53.582;9.962;2023-02-23T13:25:33;51.60;;;20.70;;
4748;SDS011;2388;53.582;9.962;2023-02-23T13:28:07;52.27;;;21.17;;
4748;SDS011;2388;53.582;9.962;2023-02-23T13:30:41;55.10;;;19.93;;
4748;SDS011;2388;53.582;9.962;2023-02-23T13:33:23;49.37;;;22.23;;
4748;SDS011;2388;53.582;9.962;2023-02-23T13:35:51;59.63;;;21.03;;
4748;SDS011;2388;53.582;9.962;2023-02-23T13:39:04;51.93;;;20.03;;
4748;SDS011;2388;53.582;9.962;2023-02-23T13:41:30;51.60;;;19.37;;
4748;SDS011;2388;53.582;9.962;2023-02-23T13:44:15;48.10;;;18.57;;
4748;SDS011;2388;53.582;9.962;2023-02-23T13:47:02;44.97;;;19.10;;
4748;SDS011;2388;53.582;9.962;2023-02-23T13:52:31;43.00;;;17.47;;
4748;SDS011;2388;53.582;9.962;2023-02-23T13:57:50;50.10;;;18.53;;
4748;SDS011;2388;53.582;9.962;2023-02-23T14:00:17;40.80;;;17.53;;
4748;SDS011;2388;53.582;9.962;2023-02-23T14:02:44;41.30;;;17.67;;
4748;SDS011;2388;53.582;9.962;2023-02-23T14:05:17;46.40;;;18.43;;
4748;SDS011;2388;53.582;9.962;2023-02-23T14:07:47;43.80;;;17.57;;
4748;SDS011;2388;53.582;9.962;2023-02-23T14:10:16;34.20;;;15.10;;
4748;SDS011;2388;53.582;9.962;2023-02-23T14:13:30;38.77;;;17.00;;
4748;SDS011;2388;53.582;9.962;2023-02-23T14:18:48;37.13;;;15.77;;
4748;SDS011;2388;53.582;9.962;2023-02-23T14:26:13;31.77;;;13.20;;
4748;SDS011;2388;53.582;9.962;2023-02-23T14:31:52;32.03;;;14.03;;
4748;SDS011;2388;53.582;9.962;2023-02-23T14:34:55;28.87;;;12.00;;
4748;SDS011;2388;53.582;9.962;2023-02-23T14:37:34;28.87;;;14.10;;
4748;SDS011;2388;53.582;9.962;2023-02-23T14:40:10;31.20;;;11.60;;
4748;SDS011;2388;53.582;9.962;2023-02-23T14:42:48;24.73;;;11.00;;
4748;SDS011;2388;53.582;9.962;2023-02-23T14:45:16;38.47;;;12.83;;
4748;SDS011;2388;53.582;9.962;2023-02-23T14:47:51;31.20;;;11.00;;
4748;SDS011;2388;53.582;9.962;2023-02-23T14:50:26;25.93;;;10.47;;
4748;SDS011;2388;53.582;9.962;2023-02-23T14:52:56;22.23;;;9.90;;
4748;SDS011;2388;53.582;9.962;2023-02-23T14:55:28;29.53;;;10.50;;
4748;SDS011;2388;53.582;9.962;2023-02-23T14:57:56;24.80;;;11.03;;
4748;SDS011;2388;53.582;9.962;2023-02-23T15:00:24;23.93;;;11.27;;
4748;SDS011;2388;53.582;9.962;2023-02-23T15:02:53;21.93;;;10.70;;
4748;SDS011;2388;53.582;9.962;2023-02-23T15:05:28;25.10;;;12.03;;
4748;SDS011;2388;53.582;9.962;2023-02-23T15:08:00;22.20;;;10.40;;
4748;SDS011;2388;53.582;9.962;2023-02-23T15:12:57;30.67;;;10.90;;
4748;SDS011;2388;53.582;9.962;2023-02-23T15:15:24;24.93;;;11.13;;
4748;SDS011;2388;53.582;9.962;2023-02-23T15:17:54;30.40;;;12.30;;
4748;SDS011;2388;53.582;9.962;2023-02-23T15:20:25;31.63;;;10.93;;
4748;SDS011;2388;53.582;9.962;2023-02-23T15:22:56;32.90;;;11.77;;
4748;SDS011;2388;53.582;9.962;2023-02-23T15:25:25;28.57;;;12.37;;
4748;SDS011;2388;53.582;9.962;2023-02-23T15:27:58;30.03;;;11.27;;
4748;SDS011;2388;53.582;9.962;2023-02-23T15:30:42;33.63;;;13.57;;
4748;SDS011;2388;53.582;9.962;2023-02-23T15:33:12;27.13;;;12.67;;
4748;SDS011;2388;53.582;9.962;2023-02-23T15:35:48;29.53;;;12.10;;
4748;SDS011;2388;53.582;9.962;2023-02-23T15:38:20;28.10;;;10.97;;
4748;SDS011;2388;53.582;9.962;2023-02-23T15:40:55;32.33;;;12.30;;
4748;SDS011;2388;53.582;9.962;2023-02-23T15:43:23;30.53;;;11.00;;
4748;SDS011;2388;53.582;9.962;2023-02-23T15:45:54;36.10;;;12.87;;
4748;SDS011;2388;53.582;9.962;2023-02-23T15:48:21;34.10;;;12.60;;
4748;SDS011;2388;53.582;9.962;2023-02-23T15:50:49;32.83;;;12.73;;
4748;SDS011;2388;53.582;9.962;2023-02-23T15:53:23;38.90;;;13.50;;
4748;SDS011;2388;53.582;9.962;2023-02-23T15:56:01;38.97;;;13.63;;
4748;SDS011;2388;53.582;9.962;2023-02-23T15:58:37;37.60;;;14.80;;
4748;SDS011;2388;53.582;9.962;2023-02-23T16:01:09;41.40;;;13.70;;
4748;SDS011;2388;53.582;9.962;2023-02-23T16:03:37;36.73;;;15.00;;
4748;SDS011;2388;53.582;9.962;2023-02-23T16:06:21;38.43;;;14.70;;
4748;SDS011;2388;53.582;9.962;2023-02-23T16:08:58;38.43;;;13.43;;
4748;SDS011;2388;53.582;9.962;2023-02-23T16:11:33;30.80;;;12.00;;
4748;SDS011;2388;53.582;9.962;2023-02-23T16:14:00;36.83;;;11.50;;
4748;SDS011;2388;53.582;9.962;2023-02-23T16:16:28;31.00;;;12.17;;
4748;SDS011;2388;53.582;9.962;2023-02-23T16:18:58;27.40;;;11.43;;
4748;SDS011;2388;53.582;9.962;2023-02-23T16:21:26;29.97;;;11.20;;
4748;SDS011;2388;53.582;9.962;2023-02-23T16:23:59;33.93;;;10.00;;
4748;SDS011;2388;53.582;9.962;2023-02-23T16:26:36;32.97;;;11.77;;
4748;SDS011;2388;53.582;9.962;2023-02-23T16:29:12;27.53;;;9.87;;
4748;SDS011;2388;53.582;9.962;2023-02-23T16:31:47;34.63;;;10.07;;
4748;SDS011;2388;53.582;9.962;2023-02-23T16:36:56;34.93;;;7.57;;
4748;SDS011;2388;53.582;9.962;2023-02-23T16:39:23;32.93;;;7.13;;
4748;SDS011;2388;53.582;9.962;2023-02-23T16:41:53;32.63;;;7.03;;
4748;SDS011;2388;53.582;9.962;2023-02-23T16:44:22;23.43;;;6.53;;